createdAt,value
2023-07-06T00:00:30.093Z,76.07
2023-07-06T00:01:30.179Z,76.17
2023-07-06T00:02:30.218Z,76.28
2023-07-06T00:03:30.230Z,76.27
2023-07-06T00:04:30.248Z,76.39
2023-07-06T00:05:30.225Z,76.45
2023-07-06T00:06:30.227Z,76.43
2023-07-06T00:07:30.237Z,76.21
2023-07-06T00:08:30.303Z,76.35
2023-07-06T00:09:30.288Z,76.43
2023-07-06T00:10:30.276Z,77.07
2023-07-06T00:11:30.297Z,77.05
2023-07-06T00:12:30.290Z,76.95
2023-07-06T00:13:30.364Z,76.87
2023-07-06T00:14:30.309Z,76.65
2023-07-06T00:15:30.318Z,77.12
2023-07-06T00:16:30.377Z,76.88
2023-07-06T00:17:30.418Z,76.86
2023-07-06T00:18:30.496Z,76.72
2023-07-06T00:19:30.552Z,76.69
2023-07-06T00:20:30.628Z,76.77
2023-07-06T00:21:30.602Z,76.65
2023-07-06T00:22:30.652Z,76.78
2023-07-06T00:23:30.735Z,76.91
2023-07-06T00:24:30.762Z,76.95
2023-07-06T00:25:30.844Z,78.35
2023-07-06T00:26:30.892Z,78.32
2023-07-06T00:27:30.948Z,78.47
2023-07-06T00:28:31.046Z,78.53
2023-07-06T00:29:31.080Z,78.79
2023-07-06T00:30:31.149Z,78.80
2023-07-06T00:31:31.240Z,78.97
2023-07-06T00:32:31.290Z,78.90
2023-07-06T00:33:31.262Z,78.63
2023-07-06T00:34:31.244Z,78.45
2023-07-06T00:35:31.278Z,79.02
2023-07-06T00:36:31.279Z,79.02
2023-07-06T00:37:31.287Z,79.48
2023-07-06T00:38:31.278Z,79.14
2023-07-06T00:39:31.277Z,80.33
2023-07-06T00:40:31.315Z,79.79
2023-07-06T00:41:31.311Z,79.78
2023-07-06T00:42:31.308Z,80.20
2023-07-06T00:43:31.329Z,79.84
2023-07-06T00:44:31.313Z,79.66
2023-07-06T00:45:31.337Z,79.40
2023-07-06T00:46:31.645Z,79.27
2023-07-06T00:47:31.394Z,79.24
2023-07-06T00:48:31.391Z,79.21
2023-07-06T00:49:31.362Z,79.64
2023-07-06T00:50:31.387Z,79.69
2023-07-06T00:51:31.393Z,79.93
2023-07-06T00:52:31.443Z,79.84
2023-07-06T00:53:31.463Z,79.76
2023-07-06T00:54:31.508Z,79.93
2023-07-06T00:55:31.587Z,80.39
2023-07-06T00:56:31.645Z,80.85
2023-07-06T00:57:31.718Z,80.33
2023-07-06T00:58:31.763Z,80.92
2023-07-06T00:59:31.783Z,81.26
2023-07-06T01:00:31.946Z,80.47
2023-07-06T01:01:31.985Z,80.43
2023-07-06T01:02:32.112Z,80.19
2023-07-06T01:03:32.236Z,80.09
2023-07-06T01:04:32.160Z,80.24
2023-07-06T01:05:32.280Z,80.24
2023-07-06T01:06:32.269Z,80.75
2023-07-06T01:07:32.305Z,80.97
2023-07-06T01:08:32.326Z,82.13
2023-07-06T01:09:32.328Z,81.22
2023-07-06T01:10:32.416Z,80.83
2023-07-06T01:11:32.363Z,80.82
2023-07-06T01:12:32.372Z,80.47
2023-07-06T01:13:32.404Z,80.32
2023-07-06T01:14:32.350Z,79.91
2023-07-06T01:15:32.431Z,80.44
2023-07-06T01:16:32.522Z,79.62
2023-07-06T01:17:32.425Z,79.45
2023-07-06T01:18:32.392Z,80.86
2023-07-06T01:19:32.398Z,80.47
2023-07-06T01:20:32.390Z,80.48
2023-07-06T01:21:32.400Z,80.45
2023-07-06T01:22:32.398Z,80.69
2023-07-06T01:23:32.433Z,81.06
2023-07-06T01:24:32.478Z,80.95
2023-07-06T01:25:32.528Z,80.71
2023-07-06T01:26:32.562Z,81.05
2023-07-06T01:27:32.589Z,80.84
2023-07-06T01:28:32.649Z,80.64
2023-07-06T01:29:32.707Z,80.97
2023-07-06T01:30:32.721Z,81.13
2023-07-06T01:31:32.849Z,81.02
2023-07-06T01:32:32.892Z,80.92
2023-07-06T01:33:32.924Z,80.64
2023-07-06T01:34:32.977Z,81.26
2023-07-06T01:35:33.044Z,80.96
2023-07-06T01:36:33.109Z,80.52
2023-07-06T01:37:33.204Z,80.26
2023-07-06T01:38:33.266Z,80.39
2023-07-06T01:39:33.312Z,80.09
2023-07-06T01:40:33.385Z,79.92
2023-07-06T01:41:33.465Z,79.88
2023-07-06T01:42:33.542Z,79.74
2023-07-06T01:43:33.521Z,79.59
2023-07-06T01:44:33.593Z,79.41
2023-07-06T01:45:33.600Z,79.07
2023-07-06T01:46:33.607Z,79.03
2023-07-06T01:47:33.652Z,78.93
2023-07-06T01:48:33.697Z,79.14
2023-07-06T01:49:33.661Z,78.91
2023-07-06T01:50:33.682Z,78.95
2023-07-06T01:51:33.708Z,79.29
2023-07-06T01:52:33.723Z,79.16
2023-07-06T01:53:33.740Z,79.01
2023-07-06T01:54:33.714Z,79.06
2023-07-06T01:55:33.735Z,79.97
2023-07-06T01:56:33.740Z,79.22
2023-07-06T01:57:43.250Z,79.10
2023-07-06T01:58:34.802Z,79.13
2023-07-06T01:59:33.804Z,79.44
2023-07-06T02:00:33.930Z,79.34
2023-07-06T02:01:33.828Z,79.41
2023-07-06T02:02:33.979Z,79.55
2023-07-06T02:03:33.881Z,79.52
2023-07-06T02:04:33.948Z,79.18
2023-07-06T02:05:33.869Z,79.81
2023-07-06T02:06:33.884Z,79.37
2023-07-06T02:07:33.872Z,80.42
2023-07-06T02:08:33.900Z,79.89
2023-07-06T02:09:33.929Z,79.57
2023-07-06T02:10:33.902Z,79.36
2023-07-06T02:11:33.961Z,79.21
2023-07-06T02:12:34.048Z,79.20
2023-07-06T02:13:34.166Z,78.88
2023-07-06T02:14:34.193Z,78.69
2023-07-06T02:15:34.209Z,78.48
2023-07-06T02:16:34.321Z,78.69
2023-07-06T02:17:34.320Z,78.51
2023-07-06T02:18:34.327Z,78.29
2023-07-06T02:19:34.388Z,78.01
2023-07-06T02:20:34.402Z,78.02
2023-07-06T02:21:34.434Z,77.66
2023-07-06T02:22:34.470Z,77.55
2023-07-06T02:23:34.607Z,77.43
2023-07-06T02:24:34.707Z,77.40
2023-07-06T02:25:34.754Z,77.35
2023-07-06T02:26:34.816Z,77.24
2023-07-06T02:27:34.852Z,77.18
2023-07-06T02:28:34.904Z,76.79
2023-07-06T02:29:34.916Z,76.64
2023-07-06T02:30:35.083Z,76.70
2023-07-06T02:31:35.044Z,76.55
2023-07-06T02:32:35.234Z,76.32
2023-07-06T02:33:35.164Z,76.27
2023-07-06T02:34:35.171Z,76.21
2023-07-06T02:35:35.195Z,76.09
2023-07-06T02:36:35.217Z,76.05
2023-07-06T02:37:35.232Z,76.04
2023-07-06T02:38:35.521Z,75.90
2023-07-06T02:39:35.272Z,75.80
2023-07-06T02:40:35.307Z,75.66
2023-07-06T02:41:35.347Z,75.83
2023-07-06T02:42:35.486Z,75.68
2023-07-06T02:43:35.486Z,75.72
2023-07-06T02:44:35.524Z,75.66
2023-07-06T02:45:35.627Z,75.47
2023-07-06T02:46:35.651Z,75.39
2023-07-06T02:47:35.696Z,75.13
2023-07-06T02:48:35.735Z,74.91
2023-07-06T02:49:35.803Z,74.84
2023-07-06T02:50:35.853Z,75.03
2023-07-06T02:51:35.904Z,75.00
2023-07-06T02:52:35.972Z,74.97
2023-07-06T02:53:36.020Z,74.86
2023-07-06T02:54:36.049Z,74.99
2023-07-06T02:55:36.022Z,75.06
2023-07-06T02:56:36.030Z,74.96
2023-07-06T02:57:36.059Z,75.02
2023-07-06T02:58:36.095Z,74.98
2023-07-06T02:59:36.194Z,75.09
2023-07-06T03:00:36.217Z,75.24
2023-07-06T03:01:36.350Z,75.90
2023-07-06T03:02:36.372Z,76.42
2023-07-06T03:03:36.390Z,76.28
2023-07-06T03:04:36.451Z,76.42
2023-07-06T03:05:36.479Z,76.45
2023-07-06T03:06:36.425Z,76.54
2023-07-06T03:07:36.398Z,76.91
2023-07-06T03:08:36.424Z,76.92
2023-07-06T03:09:36.432Z,76.76
2023-07-06T03:10:36.428Z,76.72
2023-07-06T03:11:36.425Z,76.66
2023-07-06T03:12:36.429Z,76.61
2023-07-06T03:13:36.484Z,76.49
2023-07-06T03:14:36.458Z,76.36
2023-07-06T03:15:36.453Z,76.43
2023-07-06T03:16:36.549Z,76.52
2023-07-06T03:17:36.611Z,76.59
2023-07-06T03:18:36.626Z,76.61
2023-07-06T03:19:36.666Z,76.67
2023-07-06T03:20:36.716Z,76.78
2023-07-06T03:21:36.740Z,77.23
2023-07-06T03:22:36.766Z,76.90
2023-07-06T03:23:36.809Z,76.86
2023-07-06T03:24:36.905Z,76.82
2023-07-06T03:25:36.959Z,76.94
2023-07-06T03:26:37.040Z,76.92
2023-07-06T03:27:36.996Z,77.22
2023-07-06T03:28:37.034Z,77.15
2023-07-06T03:29:37.118Z,77.00
2023-07-06T03:30:37.094Z,76.85
2023-07-06T03:31:37.239Z,77.20
2023-07-06T03:32:37.288Z,77.02
2023-07-06T03:33:37.302Z,76.99
2023-07-06T03:34:37.351Z,76.90
2023-07-06T03:35:37.390Z,77.06
2023-07-06T03:36:37.413Z,76.95
2023-07-06T03:37:37.475Z,76.90
2023-07-06T03:38:37.517Z,76.68
2023-07-06T03:39:37.604Z,76.72
2023-07-06T03:40:37.624Z,76.68
2023-07-06T03:41:37.628Z,76.66
2023-07-06T03:42:37.702Z,76.52
2023-07-06T03:43:37.774Z,76.39
2023-07-06T03:44:37.802Z,76.35
2023-07-06T03:45:37.802Z,76.29
2023-07-06T03:46:38.016Z,76.19
2023-07-06T03:47:37.865Z,75.92
2023-07-06T03:48:37.791Z,76.18
2023-07-06T03:49:37.784Z,76.00
2023-07-06T03:50:37.812Z,75.83
2023-07-06T03:51:37.816Z,75.96
2023-07-06T03:52:37.785Z,75.81
2023-07-06T03:53:37.782Z,75.55
2023-07-06T03:54:37.796Z,75.48
2023-07-06T03:55:37.791Z,75.45
2023-07-06T03:56:37.802Z,75.39
2023-07-06T03:57:42.298Z,75.48
2023-07-06T03:58:38.803Z,75.41
2023-07-06T03:59:37.790Z,75.45
2023-07-06T04:00:37.821Z,75.41
2023-07-06T04:01:37.965Z,75.13
2023-07-06T04:02:37.850Z,74.98
2023-07-06T04:03:37.837Z,74.87
2023-07-06T04:04:37.807Z,74.88
2023-07-06T04:05:37.979Z,74.91
2023-07-06T04:06:37.798Z,74.67
2023-07-06T04:07:37.798Z,74.98
2023-07-06T04:08:37.788Z,75.20
2023-07-06T04:09:37.813Z,75.23
2023-07-06T04:10:37.804Z,75.22
2023-07-06T04:11:37.788Z,75.34
2023-07-06T04:12:37.856Z,75.54
2023-07-06T04:13:37.959Z,75.56
2023-07-06T04:14:37.866Z,75.36
2023-07-06T04:15:37.860Z,75.12
2023-07-06T04:16:37.945Z,75.13
2023-07-06T04:17:37.918Z,75.09
2023-07-06T04:18:37.878Z,75.08
2023-07-06T04:19:37.889Z,75.11
2023-07-06T04:20:37.901Z,75.00
2023-07-06T04:21:37.900Z,75.06
2023-07-06T04:22:37.896Z,75.48
2023-07-06T04:23:37.910Z,75.41
2023-07-06T04:24:37.928Z,75.49
2023-07-06T04:25:37.898Z,75.42
2023-07-06T04:26:37.902Z,75.45
2023-07-06T04:27:37.902Z,75.48
2023-07-06T04:28:37.919Z,75.30
2023-07-06T04:29:37.935Z,75.22
2023-07-06T04:30:37.937Z,75.18
2023-07-06T04:31:38.088Z,75.09
2023-07-06T04:32:37.989Z,74.92
2023-07-06T04:33:37.980Z,74.95
2023-07-06T04:34:38.062Z,75.40
2023-07-06T04:35:40.319Z,75.44
2023-07-06T04:36:38.239Z,75.38
2023-07-06T04:37:38.275Z,75.39
2023-07-06T04:38:38.343Z,75.42
2023-07-06T04:39:38.396Z,75.43
2023-07-06T04:40:38.432Z,75.43
2023-07-06T04:41:38.579Z,74.96
2023-07-06T04:42:38.521Z,74.97
2023-07-06T04:43:38.579Z,74.76
2023-07-06T04:44:38.655Z,74.60
2023-07-06T04:45:38.667Z,74.43
2023-07-06T04:46:38.763Z,74.02
2023-07-06T04:47:38.787Z,73.77
2023-07-06T04:48:38.800Z,73.51
2023-07-06T04:49:38.861Z,73.31
2023-07-06T04:50:39.076Z,73.14
2023-07-06T04:51:38.928Z,73.03
2023-07-06T04:52:38.922Z,72.79
2023-07-06T04:53:38.985Z,72.67
2023-07-06T04:54:39.043Z,72.51
2023-07-06T04:55:39.123Z,72.98
2023-07-06T04:56:39.137Z,72.97
2023-07-06T04:57:39.182Z,73.37
2023-07-06T04:58:39.230Z,73.06
2023-07-06T04:59:39.288Z,73.23
2023-07-06T05:00:39.267Z,73.20
2023-07-06T05:01:39.303Z,72.96
2023-07-06T05:02:39.346Z,72.75
2023-07-06T05:03:39.406Z,72.77
2023-07-06T05:04:39.428Z,72.96
2023-07-06T05:05:39.480Z,72.70
2023-07-06T05:06:39.481Z,72.94
2023-07-06T05:07:39.503Z,72.63
2023-07-06T05:08:39.489Z,72.85
2023-07-06T05:09:39.490Z,72.32
2023-07-06T05:10:39.559Z,72.09
2023-07-06T05:11:39.423Z,71.86
2023-07-06T05:12:39.404Z,71.83
2023-07-06T05:13:39.430Z,71.92
2023-07-06T05:14:39.383Z,71.55
2023-07-06T05:15:39.405Z,71.57
2023-07-06T05:16:39.417Z,71.36
2023-07-06T05:17:39.376Z,71.96
2023-07-06T05:18:39.347Z,71.90
2023-07-06T05:19:39.348Z,71.52
2023-07-06T05:20:39.425Z,71.65
2023-07-06T05:21:39.332Z,71.68
2023-07-06T05:22:39.326Z,71.22
2023-07-06T05:23:39.319Z,71.04
2023-07-06T05:24:39.367Z,71.08
2023-07-06T05:25:39.323Z,70.88
2023-07-06T05:26:39.907Z,70.63
2023-07-06T05:27:39.427Z,70.35
2023-07-06T05:28:39.364Z,70.44
2023-07-06T05:29:39.616Z,70.04
2023-07-06T05:30:39.345Z,70.33
2023-07-06T05:31:39.326Z,70.13
2023-07-06T05:32:39.334Z,70.06
2023-07-06T05:33:39.296Z,70.19
2023-07-06T05:34:39.516Z,70.09
2023-07-06T05:35:39.268Z,69.82
2023-07-06T05:36:39.386Z,69.74
2023-07-06T05:37:39.288Z,69.69
2023-07-06T05:38:39.268Z,69.80
2023-07-06T05:39:39.231Z,69.74
2023-07-06T05:40:39.186Z,69.29
2023-07-06T05:41:39.202Z,69.41
2023-07-06T05:42:39.934Z,69.47
2023-07-06T05:43:39.176Z,69.11
2023-07-06T05:44:39.436Z,68.58
2023-07-06T05:45:39.155Z,68.77
2023-07-06T05:46:39.166Z,68.60
2023-07-06T05:47:39.171Z,68.61
2023-07-06T05:48:39.159Z,68.20
2023-07-06T05:49:39.215Z,67.98
2023-07-06T05:50:39.238Z,68.12
2023-07-06T05:51:39.264Z,67.70
2023-07-06T05:52:39.324Z,67.20
2023-07-06T05:53:39.342Z,66.83
2023-07-06T05:54:39.372Z,66.94
2023-07-06T05:55:39.403Z,66.85
2023-07-06T05:56:39.443Z,66.84
2023-07-06T05:57:39.475Z,66.66
2023-07-06T05:58:39.559Z,66.32
2023-07-06T05:59:39.551Z,66.35
2023-07-06T06:00:39.547Z,66.27
2023-07-06T06:01:39.643Z,66.14
2023-07-06T06:02:39.703Z,66.23
2023-07-06T06:03:40.474Z,66.13
2023-07-06T06:04:39.915Z,66.13
2023-07-06T06:05:39.696Z,66.70
2023-07-06T06:06:39.690Z,66.66
2023-07-06T06:07:40.449Z,66.07
2023-07-06T06:08:39.638Z,66.15
2023-07-06T06:09:39.604Z,66.22
2023-07-06T06:10:39.642Z,66.17
2023-07-06T06:11:39.564Z,65.99
2023-07-06T06:12:39.581Z,66.30
2023-07-06T06:13:39.569Z,66.57
2023-07-06T06:14:39.531Z,65.73
2023-07-06T06:15:39.511Z,64.96
2023-07-06T06:16:39.492Z,64.77
2023-07-06T06:17:39.548Z,64.70
2023-07-06T06:18:41.216Z,64.79
2023-07-06T06:19:39.410Z,64.30
2023-07-06T06:20:39.380Z,64.41
2023-07-06T06:21:39.378Z,64.69
2023-07-06T06:22:39.379Z,64.76
2023-07-06T06:23:39.312Z,64.41
2023-07-06T06:24:39.279Z,64.57
2023-07-06T06:25:39.274Z,65.32
2023-07-06T06:26:39.214Z,65.47
2023-07-06T06:27:39.208Z,65.27
2023-07-06T06:28:39.174Z,65.11
2023-07-06T06:29:39.444Z,64.62
2023-07-06T06:30:39.125Z,64.92
2023-07-06T06:31:39.134Z,65.68
2023-07-06T06:32:39.160Z,65.48
2023-07-06T06:33:39.093Z,64.95
2023-07-06T06:34:39.181Z,65.61
2023-07-06T06:35:39.942Z,64.98
2023-07-06T06:36:39.481Z,64.30
2023-07-06T06:37:39.087Z,64.18
2023-07-06T06:38:38.981Z,64.07
2023-07-06T06:39:39.030Z,64.25
2023-07-06T06:40:38.950Z,64.52
2023-07-06T06:41:38.916Z,64.40
2023-07-06T06:42:38.861Z,64.47
2023-07-06T06:43:38.829Z,64.03
2023-07-06T06:44:38.798Z,63.86
2023-07-06T06:45:38.769Z,63.84
2023-07-06T06:46:38.810Z,63.75
2023-07-06T06:47:38.729Z,64.00
2023-07-06T06:48:38.670Z,63.77
2023-07-06T06:49:38.964Z,64.42
2023-07-06T06:50:38.586Z,64.67
2023-07-06T06:51:38.550Z,64.24
2023-07-06T06:52:38.574Z,65.30
2023-07-06T06:53:38.484Z,65.20
2023-07-06T06:54:39.458Z,65.86
2023-07-06T06:55:38.421Z,65.66
2023-07-06T06:56:38.423Z,64.89
2023-07-06T06:57:38.375Z,64.71
2023-07-06T06:58:38.389Z,64.79
2023-07-06T06:59:38.318Z,64.61
2023-07-06T07:00:38.279Z,63.63
2023-07-06T07:01:38.274Z,63.28
2023-07-06T07:02:38.266Z,63.08
2023-07-06T07:03:38.252Z,62.85
2023-07-06T07:04:38.185Z,62.56
2023-07-06T07:05:38.167Z,63.43
2023-07-06T07:06:38.118Z,62.85
2023-07-06T07:07:38.084Z,63.28
2023-07-06T07:08:38.973Z,64.07
2023-07-06T07:09:38.134Z,63.67
2023-07-06T07:10:38.207Z,62.82
2023-07-06T07:11:38.105Z,61.86
2023-07-06T07:12:38.134Z,62.59
2023-07-06T07:13:38.226Z,63.21
2023-07-06T07:14:38.977Z,63.97
2023-07-06T07:15:38.162Z,63.92
2023-07-06T07:16:38.243Z,62.77
2023-07-06T07:17:38.297Z,62.83
2023-07-06T07:18:38.991Z,62.69
2023-07-06T07:19:38.537Z,62.91
2023-07-06T07:20:38.181Z,62.96
2023-07-06T07:21:38.168Z,63.19
2023-07-06T07:22:38.179Z,62.71
2023-07-06T07:23:38.167Z,62.92
2023-07-06T07:24:38.261Z,62.72
2023-07-06T07:25:38.152Z,64.16
2023-07-06T07:26:38.176Z,63.48
2023-07-06T07:27:38.162Z,63.70
2023-07-06T07:28:38.154Z,64.44
2023-07-06T07:29:38.089Z,65.53
2023-07-06T07:30:38.023Z,65.54
2023-07-06T07:31:38.007Z,67.33
2023-07-06T07:32:37.934Z,67.50
2023-07-06T07:33:37.937Z,67.07
2023-07-06T07:34:37.897Z,67.94
2023-07-06T07:35:37.836Z,67.38
2023-07-06T07:36:37.970Z,67.49
2023-07-06T07:37:37.890Z,67.88
2023-07-06T07:38:37.729Z,68.90
2023-07-06T07:39:37.730Z,68.30
2023-07-06T07:40:37.699Z,67.79
2023-07-06T07:41:37.698Z,69.11
2023-07-06T07:42:37.652Z,69.92
2023-07-06T07:43:37.648Z,70.01
2023-07-06T07:44:37.613Z,69.19
2023-07-06T07:45:37.680Z,69.24
2023-07-06T07:46:37.739Z,69.53
2023-07-06T07:47:37.621Z,69.04
2023-07-06T07:48:37.613Z,68.81
2023-07-06T07:49:37.967Z,68.54
2023-07-06T07:50:37.626Z,68.74
2023-07-06T07:51:37.655Z,68.67
2023-07-06T07:52:37.619Z,68.70
2023-07-06T07:53:40.106Z,69.32
2023-07-06T07:54:37.707Z,68.97
2023-07-06T07:55:37.651Z,69.12
2023-07-06T07:56:37.827Z,69.00
2023-07-06T07:57:37.635Z,69.06
2023-07-06T07:58:37.992Z,69.24
2023-07-06T07:59:37.696Z,69.62
2023-07-06T08:00:38.647Z,70.23
2023-07-06T08:01:38.707Z,70.29
2023-07-06T08:02:37.927Z,70.87
2023-07-06T08:03:38.860Z,70.79
2023-07-06T08:04:40.199Z,70.77
2023-07-06T08:05:37.658Z,70.69
2023-07-06T08:06:37.646Z,71.19
2023-07-06T08:07:37.657Z,70.90
2023-07-06T08:08:38.471Z,71.30
2023-07-06T08:09:37.682Z,71.42
2023-07-06T08:10:37.673Z,70.91
2023-07-06T08:11:37.657Z,70.52
2023-07-06T08:12:37.733Z,69.89
2023-07-06T08:13:37.686Z,70.49
2023-07-06T08:14:37.655Z,70.02
2023-07-06T08:15:37.740Z,69.63
2023-07-06T08:16:37.701Z,69.61
2023-07-06T08:17:37.650Z,70.16
2023-07-06T08:18:37.669Z,68.37
2023-07-06T08:19:55.145Z,67.64
2023-07-06T08:21:08.794Z,66.89
2023-07-06T08:22:38.596Z,64.59
2023-07-06T08:23:37.602Z,64.14
2023-07-06T08:24:37.544Z,63.96
2023-07-06T08:25:37.521Z,64.08
2023-07-06T08:26:37.535Z,62.96
2023-07-06T08:27:37.452Z,62.17
2023-07-06T08:28:37.414Z,60.88
2023-07-06T08:29:37.387Z,61.08
2023-07-06T08:30:37.356Z,60.11
2023-07-06T08:31:37.399Z,60.19
2023-07-06T08:32:37.362Z,61.34
2023-07-06T08:33:37.255Z,58.53
2023-07-06T08:34:37.430Z,59.40
2023-07-06T08:35:37.143Z,60.14
2023-07-06T08:36:37.972Z,58.48
2023-07-06T08:37:37.019Z,59.36
2023-07-06T08:38:37.021Z,57.33
2023-07-06T08:39:36.989Z,57.12
2023-07-06T08:40:36.888Z,56.36
2023-07-06T08:41:36.846Z,55.50
2023-07-06T08:42:36.784Z,54.37
2023-07-06T08:43:36.714Z,55.05
2023-07-06T08:44:36.743Z,54.34
2023-07-06T08:45:36.618Z,53.20
2023-07-06T08:46:36.612Z,53.17
2023-07-06T08:47:36.548Z,52.38
2023-07-06T08:48:36.483Z,52.06
2023-07-06T08:49:36.373Z,51.33
2023-07-06T08:50:36.333Z,52.58
2023-07-06T08:51:36.215Z,50.97
2023-07-06T08:52:36.118Z,51.12
2023-07-06T08:53:36.047Z,50.13
2023-07-06T08:54:36.046Z,49.54
2023-07-06T08:55:35.882Z,48.95
2023-07-06T08:56:35.853Z,49.36
2023-07-06T08:57:35.749Z,50.21
2023-07-06T08:58:35.688Z,49.20
2023-07-06T08:59:35.646Z,48.72
2023-07-06T09:00:35.584Z,49.05
2023-07-06T09:01:35.564Z,48.67
2023-07-06T09:02:35.553Z,49.36
2023-07-06T09:03:35.542Z,49.98
2023-07-06T09:04:35.449Z,48.21
2023-07-06T09:05:35.389Z,48.10
2023-07-06T09:06:35.322Z,48.72
2023-07-06T09:07:35.250Z,48.46
2023-07-06T09:08:35.246Z,48.45
2023-07-06T09:09:35.231Z,48.88
2023-07-06T09:10:35.120Z,49.50
2023-07-06T09:11:38.382Z,50.26
2023-07-06T09:12:34.985Z,50.81
2023-07-06T09:13:34.916Z,51.95
2023-07-06T09:14:34.817Z,51.12
2023-07-06T09:15:37.689Z,51.55
2023-07-06T09:16:34.656Z,51.41
2023-07-06T09:17:35.608Z,50.49
2023-07-06T09:18:34.517Z,51.99
2023-07-06T09:19:36.583Z,51.89
2023-07-06T09:20:35.000Z,51.18
2023-07-06T09:21:34.318Z,52.08
2023-07-06T09:22:34.329Z,51.49
2023-07-06T09:23:34.365Z,50.79
2023-07-06T09:24:34.051Z,51.82
2023-07-06T09:25:33.986Z,51.20
2023-07-06T09:26:34.343Z,50.56
2023-07-06T09:27:34.586Z,51.00
2023-07-06T09:28:33.850Z,50.23
2023-07-06T09:29:35.585Z,50.19
2023-07-06T09:30:34.567Z,49.96
2023-07-06T09:31:33.693Z,50.02
2023-07-06T09:32:33.753Z,49.71
2023-07-06T09:33:33.587Z,49.56
2023-07-06T09:34:33.613Z,49.28
2023-07-06T09:35:33.605Z,49.14
2023-07-06T09:36:33.508Z,49.24
2023-07-06T09:37:33.494Z,49.91
2023-07-06T09:38:33.851Z,48.71
2023-07-06T09:39:33.489Z,48.89
2023-07-06T09:40:33.979Z,48.82
2023-07-06T09:41:33.500Z,48.02
2023-07-06T09:42:34.105Z,49.07
2023-07-06T09:43:33.460Z,49.44
2023-07-06T09:44:33.365Z,49.02
2023-07-06T09:45:33.550Z,48.72
2023-07-06T09:46:33.329Z,48.67
2023-07-06T09:47:33.264Z,47.69
2023-07-06T09:48:33.190Z,47.98
2023-07-06T09:49:33.154Z,48.26
2023-07-06T09:50:33.120Z,49.39
2023-07-06T09:51:33.086Z,49.49
2023-07-06T09:52:33.047Z,48.37
2023-07-06T09:53:33.018Z,49.91
2023-07-06T09:54:32.878Z,49.87
2023-07-06T09:55:32.844Z,50.13
2023-07-06T09:56:32.718Z,49.40
2023-07-06T09:57:32.767Z,47.59
2023-07-06T09:58:33.563Z,45.20
2023-07-06T09:59:32.514Z,45.35
2023-07-06T10:00:32.431Z,44.54
2023-07-06T10:01:32.366Z,44.47
2023-07-06T10:02:32.276Z,43.23
2023-07-06T10:03:32.175Z,43.72
2023-07-06T10:04:32.101Z,45.12
2023-07-06T10:05:32.176Z,43.79
2023-07-06T10:06:32.014Z,44.08
2023-07-06T10:07:31.899Z,43.94
2023-07-06T10:08:31.917Z,44.45
2023-07-06T10:09:31.838Z,45.11
2023-07-06T10:10:31.912Z,45.49
2023-07-06T10:11:31.718Z,43.50
2023-07-06T10:12:31.673Z,44.06
2023-07-06T10:13:31.663Z,44.84
2023-07-06T10:14:31.567Z,44.43
2023-07-06T10:15:31.538Z,44.45
2023-07-06T10:16:31.490Z,43.57
2023-07-06T10:17:31.421Z,43.25
2023-07-06T10:18:31.329Z,42.26
2023-07-06T10:19:31.258Z,43.06
2023-07-06T10:20:31.267Z,44.03
2023-07-06T10:21:31.132Z,41.68
2023-07-06T10:22:31.100Z,42.15
2023-07-06T10:23:31.026Z,41.83
2023-07-06T10:24:31.015Z,43.20
2023-07-06T10:25:30.898Z,44.40
2023-07-06T10:26:30.812Z,43.56
2023-07-06T10:27:30.744Z,44.57
2023-07-06T10:28:30.731Z,43.62
2023-07-06T10:29:30.618Z,43.27
2023-07-06T10:30:30.618Z,43.25
2023-07-06T10:31:32.736Z,43.56
2023-07-06T10:32:30.625Z,43.54
2023-07-06T10:33:30.588Z,44.02
2023-07-06T10:34:30.604Z,43.42
2023-07-06T10:35:30.535Z,42.66
2023-07-06T10:36:30.446Z,43.66
2023-07-06T10:38:50.081Z,43.23
2023-07-06T10:39:49.423Z,42.88
2023-07-06T10:40:49.402Z,42.85
2023-07-06T10:41:49.411Z,42.30
2023-07-06T10:42:49.384Z,42.42
2023-07-06T10:43:49.395Z,42.71
2023-07-06T10:44:49.367Z,42.79
2023-07-06T10:45:49.443Z,43.40
2023-07-06T10:46:49.349Z,43.25
2023-07-06T10:47:49.397Z,43.47
2023-07-06T10:48:49.292Z,43.07
2023-07-06T10:49:49.320Z,42.86
2023-07-06T10:50:49.289Z,43.49
2023-07-06T10:51:49.246Z,44.07
2023-07-06T10:52:49.267Z,43.66
2023-07-06T10:53:49.239Z,42.55
2023-07-06T10:54:49.337Z,41.98
2023-07-06T10:55:49.214Z,41.13
2023-07-06T10:56:49.189Z,42.00
2023-07-06T10:57:49.194Z,42.29
2023-07-06T10:58:49.170Z,42.86
2023-07-06T10:59:49.138Z,42.50
2023-07-06T11:00:49.177Z,40.86
2023-07-06T11:01:49.256Z,41.51
2023-07-06T11:02:50.118Z,42.98
2023-07-06T11:03:49.193Z,42.66
2023-07-06T11:04:49.075Z,44.05
2023-07-06T11:05:49.090Z,42.50
2023-07-06T11:06:49.076Z,42.63
2023-07-06T11:07:49.037Z,41.86
2023-07-06T11:08:49.000Z,41.54
2023-07-06T11:09:49.026Z,40.73
2023-07-06T11:10:48.968Z,41.31
2023-07-06T11:11:48.952Z,41.64
2023-07-06T11:12:48.946Z,39.78
2023-07-06T11:13:48.966Z,39.86
2023-07-06T11:14:48.905Z,39.86
2023-07-06T11:15:48.971Z,42.17
2023-07-06T11:16:48.992Z,41.06
2023-07-06T11:17:48.910Z,42.55
2023-07-06T11:18:48.797Z,41.94
2023-07-06T11:19:48.753Z,43.48
2023-07-06T11:20:48.758Z,41.85
2023-07-06T11:21:48.727Z,42.75
2023-07-06T11:22:48.764Z,41.65
2023-07-06T11:23:48.677Z,43.27
2023-07-06T11:24:48.686Z,41.87
2023-07-06T11:25:48.649Z,42.19
2023-07-06T11:26:48.649Z,42.20
2023-07-06T11:27:48.701Z,41.88
2023-07-06T11:28:48.773Z,43.50
2023-07-06T11:29:48.734Z,43.24
2023-07-06T11:30:48.794Z,44.15
2023-07-06T11:31:49.039Z,45.13
2023-07-06T11:32:48.853Z,46.65
2023-07-06T11:33:48.861Z,46.47
2023-07-06T11:34:48.875Z,46.80
2023-07-06T11:35:48.890Z,46.97
2023-07-06T11:36:48.915Z,47.52
2023-07-06T11:37:58.427Z,47.53
2023-07-06T11:38:49.996Z,47.77
2023-07-06T11:39:49.035Z,48.56
2023-07-06T11:40:49.082Z,48.25
2023-07-06T11:41:49.055Z,49.14
2023-07-06T11:42:49.084Z,50.12
2023-07-06T11:43:49.094Z,50.75
2023-07-06T11:44:49.152Z,51.31
2023-07-06T11:45:49.183Z,52.51
2023-07-06T11:46:49.225Z,53.50
2023-07-06T11:47:49.488Z,54.46
2023-07-06T11:48:49.300Z,53.98
2023-07-06T11:49:49.313Z,54.76
2023-07-06T11:50:49.431Z,55.23
2023-07-06T11:51:49.437Z,58.02
2023-07-06T11:52:49.530Z,58.25
2023-07-06T11:53:49.547Z,58.04
2023-07-06T11:54:49.660Z,58.41
2023-07-06T11:55:49.776Z,58.79
2023-07-06T11:56:49.853Z,60.40
2023-07-06T11:57:49.956Z,60.61
2023-07-06T11:58:50.060Z,62.00
2023-07-06T11:59:50.170Z,61.65
2023-07-06T12:00:50.639Z,62.72
2023-07-06T12:01:50.354Z,65.16
2023-07-06T12:02:50.518Z,64.83
2023-07-06T12:03:50.602Z,64.48
2023-07-06T12:04:51.876Z,65.29
2023-07-06T12:05:52.205Z,64.36
2023-07-06T12:06:50.829Z,64.24
2023-07-06T12:07:50.919Z,63.52
2023-07-06T12:08:51.034Z,62.31
2023-07-06T12:09:51.171Z,62.52
2023-07-06T12:10:51.359Z,63.35
2023-07-06T12:11:51.385Z,63.10
2023-07-06T12:12:51.443Z,61.77
2023-07-06T12:13:51.569Z,62.64
2023-07-06T12:14:51.699Z,63.11
2023-07-06T12:15:51.728Z,61.88
2023-07-06T12:16:51.799Z,60.73
2023-07-06T12:17:51.879Z,60.66
2023-07-06T12:18:51.951Z,61.59
2023-07-06T12:19:52.042Z,61.42
2023-07-06T12:20:52.107Z,62.29
2023-07-06T12:21:52.188Z,62.69
2023-07-06T12:22:52.282Z,65.64
2023-07-06T12:23:52.332Z,65.18
2023-07-06T12:24:52.393Z,64.25
2023-07-06T12:25:52.500Z,59.90
2023-07-06T12:26:52.567Z,58.09
2023-07-06T12:27:52.601Z,56.38
2023-07-06T12:28:54.679Z,56.21
2023-07-06T12:29:52.762Z,56.75
2023-07-06T12:30:52.875Z,59.10
2023-07-06T12:31:52.970Z,60.67
2023-07-06T12:32:53.037Z,60.65
2023-07-06T12:33:53.223Z,58.21
2023-07-06T12:34:53.305Z,59.47
2023-07-06T12:35:53.418Z,62.01
2023-07-06T12:36:53.503Z,61.58
2023-07-06T12:37:53.613Z,61.40
2023-07-06T12:38:54.139Z,60.71
2023-07-06T12:39:53.810Z,61.06
2023-07-06T12:40:54.202Z,61.55
2023-07-06T12:41:53.987Z,61.69
2023-07-06T12:42:54.068Z,62.08
2023-07-06T12:43:54.127Z,62.06
2023-07-06T12:44:54.227Z,61.04
2023-07-06T12:45:54.419Z,61.97
2023-07-06T12:46:54.502Z,62.10
2023-07-06T12:47:54.525Z,62.43
2023-07-06T12:48:54.840Z,63.26
2023-07-06T12:49:57.613Z,64.08
2023-07-06T12:50:54.745Z,63.69
2023-07-06T12:51:54.811Z,63.63
2023-07-06T12:52:54.855Z,62.90
2023-07-06T12:53:54.936Z,63.80
2023-07-06T12:54:54.967Z,63.90